createdAt,value
2019-05-13T00:07:45.604Z,3844
2019-05-13T00:17:46.371Z,3844
2019-05-13T00:27:47.370Z,3844
2019-05-13T00:37:48.156Z,3844
2019-05-13T00:47:48.934Z,3844
2019-05-13T00:57:49.683Z,3844
2019-05-13T01:07:50.518Z,3844
2019-05-13T01:17:53.433Z,3824
2019-05-13T01:27:54.228Z,3824
2019-05-13T01:37:54.964Z,3824
2019-05-13T01:47:55.790Z,3824
2019-05-13T01:57:56.568Z,3824
2019-05-13T02:08:00.530Z,3824
2019-05-13T02:18:03.633Z,3804
2019-05-13T02:28:08.675Z,3804
2019-05-13T02:38:19.258Z,3804
2019-05-13T02:48:33.082Z,3804
2019-05-13T02:58:34.189Z,3804
2019-05-13T03:08:44.562Z,3804
2019-05-13T03:18:54.942Z,3784
2019-05-13T03:28:55.777Z,3784
2019-05-13T03:39:05.472Z,3784
2019-05-13T03:49:16.888Z,3784
2019-05-13T03:59:17.667Z,3764
2019-05-13T04:09:27.201Z,3764
2019-05-13T04:19:37.296Z,3764
2019-05-13T04:29:38.281Z,3764
2019-05-13T04:39:47.077Z,3744
2019-05-13T04:49:57.146Z,3744
2019-05-13T04:59:57.967Z,3744
2019-05-13T05:10:23.166Z,3744
2019-05-13T05:20:41.590Z,3744
2019-05-13T05:30:42.525Z,3744
2019-05-13T05:40:43.306Z,3724
2019-05-13T05:50:44.078Z,3724
2019-05-13T06:00:44.848Z,3724
2019-05-13T06:10:50.039Z,3724
2019-05-13T06:20:54.510Z,3724
2019-05-13T06:30:55.225Z,3704
2019-05-13T06:41:02.574Z,3704
2019-05-13T06:51:14.728Z,3704
2019-05-13T07:01:15.902Z,3704
2019-05-13T07:11:20.534Z,3704
2019-05-13T07:21:25.679Z,3704
2019-05-13T07:31:26.435Z,3684
2019-05-13T07:41:36.248Z,3684
2019-05-13T07:51:43.585Z,3684
2019-05-13T08:01:44.413Z,3684
2019-05-13T08:11:59.804Z,3684
2019-05-13T08:22:14.005Z,3664
2019-05-13T08:32:14.770Z,3664
2019-05-13T08:42:18.871Z,3664
2019-05-13T08:52:24.219Z,3664
2019-05-13T09:02:25.028Z,3664
2019-05-13T09:12:31.910Z,3644
2019-05-13T09:22:41.630Z,3644
2019-05-13T09:32:42.740Z,3644
2019-05-13T09:42:48.766Z,3644
2019-05-13T09:52:55.946Z,3644
2019-05-13T10:02:56.752Z,3624
2019-05-13T10:13:08.758Z,3624
2019-05-13T10:23:16.170Z,3624
2019-05-13T10:33:16.982Z,3624
2019-05-13T10:43:30.748Z,3624
2019-05-13T10:53:33.761Z,3624
2019-05-13T11:03:34.581Z,3604
2019-05-13T11:13:51.994Z,3604
2019-05-13T11:24:12.641Z,3604
2019-05-13T11:34:13.694Z,3604
2019-05-13T11:44:16.810Z,3604
2019-05-13T11:54:18.010Z,3604
2019-05-13T12:04:18.812Z,3584
2019-05-13T12:14:42.797Z,3584
2019-05-13T12:25:33.441Z,3584
2019-05-13T12:35:34.437Z,3584
2019-05-13T12:45:35.228Z,3584
2019-05-13T12:55:36.306Z,3584
2019-05-13T13:05:37.207Z,3564
2019-05-13T13:15:42.189Z,3564
2019-05-13T13:25:53.575Z,3564
2019-05-13T13:35:59.954Z,3564
2019-05-13T13:46:21.247Z,3564
2019-05-13T13:52:15.891Z,3584
2019-05-13T14:02:17.298Z,3584
2019-05-13T14:12:18.079Z,3584
2019-05-13T14:22:19.345Z,3564
2019-05-13T14:32:23.075Z,3564
2019-05-13T14:42:23.869Z,3564
2019-05-13T14:52:24.719Z,3564
2019-05-13T15:02:25.474Z,3544
2019-05-13T15:12:27.034Z,3544
2019-05-13T15:22:27.873Z,3544
2019-05-13T15:32:28.676Z,3544
2019-05-13T15:42:31.718Z,3524
2019-05-13T15:52:32.929Z,3524
2019-05-13T16:02:33.774Z,3524
2019-05-13T16:12:34.656Z,3524
